Terminal Aerodrome Forecast
Issued by NWS Omaha/Valley, NE

Home | Current Version | Previous Version | Graphics & Text | Print | Product List | Glossary On
Versions: 1 2 3 4 5 6 7 8 9 10 11 12 13 14 15 16 17 18 19
000
FTUS43 KOAX 231726
TAFOFK
TAF
KOFK 231726Z 2318/2418 05015G25KT P6SM OVC006
     FM232300 04015G24KT 3SM -RASN OVC003
     FM240000 04015G23KT 2SM RASN OVC003
     FM240100 03015G23KT 1SM -SN OVC008
     FM240900 36018G27KT 1 1/2SM -SN BLSN OVC008=

USA.gov is the U.S. government's official web portal to all federal, state and local government web resources and services.